createdAt,value
2022-10-04T00:01:52.073Z,58.25
2022-10-04T00:04:29.388Z,58.86
2022-10-04T00:07:12.667Z,59.11
2022-10-04T00:09:47.540Z,57.48
2022-10-04T00:12:24.573Z,57.51
2022-10-04T00:14:55.604Z,57.05
2022-10-04T00:17:27.346Z,57.50
2022-10-04T00:19:56.400Z,57.58
2022-10-04T00:22:32.564Z,57.55
2022-10-04T00:25:21.136Z,57.75
2022-10-04T00:28:27.984Z,58.96
2022-10-04T00:31:16.978Z,59.35
2022-10-04T00:33:51.050Z,58.76
2022-10-04T00:36:24.831Z,58.23
2022-10-04T00:39:04.897Z,59.56
2022-10-04T00:41:47.989Z,58.85
2022-10-04T00:44:23.820Z,57.91
2022-10-04T00:46:53.958Z,58.29
2022-10-04T00:49:26.705Z,58.12
2022-10-04T00:52:23.530Z,58.65
2022-10-04T00:54:57.106Z,58.48
2022-10-04T00:57:54.128Z,59.07
2022-10-04T01:00:22.754Z,59.21
2022-10-04T01:03:01.340Z,59.07
2022-10-04T01:05:36.269Z,59.13
2022-10-04T01:08:33.147Z,59.58
2022-10-04T01:11:00.691Z,59.44
2022-10-04T01:13:37.380Z,59.32
2022-10-04T01:16:24.990Z,58.70
2022-10-04T01:18:53.220Z,58.23
2022-10-04T01:21:20.766Z,58.97
2022-10-04T01:23:53.539Z,58.71
2022-10-04T01:26:30.339Z,59.16
2022-10-04T01:29:01.652Z,58.50
2022-10-04T01:31:31.453Z,58.26
2022-10-04T01:34:00.685Z,58.53
2022-10-04T01:36:29.410Z,59.29
2022-10-04T01:38:57.761Z,59.12
2022-10-04T01:41:36.699Z,58.87
2022-10-04T01:44:09.605Z,58.20
2022-10-04T01:46:40.340Z,59.00
2022-10-04T01:49:11.067Z,59.27
2022-10-04T01:51:44.931Z,59.22
2022-10-04T01:54:24.937Z,58.73
2022-10-04T01:57:17.154Z,58.92
2022-10-04T02:00:08.401Z,58.96
2022-10-04T02:02:55.117Z,58.97
2022-10-04T02:05:31.688Z,60.30
2022-10-04T02:08:05.910Z,60.10
2022-10-04T02:10:41.006Z,60.18
2022-10-04T02:13:15.432Z,60.36
2022-10-04T02:15:44.819Z,61.03
2022-10-04T02:18:14.869Z,60.74
2022-10-04T02:20:43.994Z,59.76
2022-10-04T02:23:13.129Z,59.29
2022-10-04T02:25:41.242Z,59.51
2022-10-04T02:28:16.268Z,59.78
2022-10-04T02:31:12.334Z,60.07
2022-10-04T02:33:45.913Z,60.59
2022-10-04T02:36:14.226Z,60.74
2022-10-04T02:38:50.484Z,60.34
2022-10-04T02:41:27.960Z,60.65
2022-10-04T02:44:32.996Z,60.57
2022-10-04T02:47:14.560Z,60.49
2022-10-04T02:49:46.914Z,60.97
2022-10-04T02:52:39.678Z,62.03
2022-10-04T02:55:18.703Z,62.28
2022-10-04T02:57:47.377Z,61.58
2022-10-04T03:00:32.668Z,62.15
2022-10-04T03:03:17.111Z,61.85
2022-10-04T03:05:54.751Z,61.55
2022-10-04T03:08:22.935Z,61.30
2022-10-04T03:10:51.135Z,61.50
2022-10-04T03:13:21.425Z,61.00
2022-10-04T03:15:50.569Z,60.92
2022-10-04T03:18:19.736Z,61.35
2022-10-04T03:20:48.447Z,61.57
2022-10-04T03:23:19.705Z,61.02
2022-10-04T03:25:52.310Z,60.92
2022-10-04T03:28:20.861Z,60.74
2022-10-04T03:30:50.054Z,60.02
2022-10-04T03:33:20.999Z,60.44
2022-10-04T03:35:58.980Z,60.36
2022-10-04T03:38:28.440Z,60.24
2022-10-04T03:41:00.495Z,59.88
2022-10-04T03:43:34.667Z,60.09
2022-10-04T03:46:05.533Z,59.95
2022-10-04T03:48:53.697Z,60.01
2022-10-04T03:51:26.619Z,59.73
2022-10-04T03:53:57.890Z,59.88
2022-10-04T03:56:31.677Z,59.59
2022-10-04T03:58:59.900Z,59.76
2022-10-04T04:01:36.502Z,59.98
2022-10-04T04:04:17.195Z,60.13
2022-10-04T04:06:57.381Z,60.83
2022-10-04T04:09:45.844Z,60.45
2022-10-04T04:12:35.314Z,60.13
2022-10-04T04:15:04.430Z,60.46
2022-10-04T04:17:39.334Z,60.48
2022-10-04T04:20:19.918Z,61.75
2022-10-04T04:22:59.154Z,61.09
2022-10-04T04:25:32.138Z,61.00
2022-10-04T04:28:17.715Z,61.52
2022-10-04T04:30:50.151Z,61.18
2022-10-04T04:33:35.338Z,61.05
2022-10-04T04:36:06.802Z,60.70
2022-10-04T04:38:35.565Z,60.73
2022-10-04T04:41:11.154Z,60.59
2022-10-04T04:43:43.932Z,61.69
2022-10-04T04:46:28.324Z,62.79
2022-10-04T04:49:05.414Z,62.75
2022-10-04T04:51:33.678Z,62.37
2022-10-04T04:54:03.835Z,62.16
2022-10-04T04:56:31.878Z,62.79
2022-10-04T04:59:04.566Z,63.20
2022-10-04T05:01:36.166Z,63.75
2022-10-04T05:04:06.988Z,63.63
2022-10-04T05:06:38.073Z,62.79
2022-10-04T05:09:06.804Z,63.17
2022-10-04T05:11:39.620Z,62.86
2022-10-04T05:14:14.267Z,62.81
2022-10-04T05:16:51.187Z,62.04
2022-10-04T05:19:30.509Z,61.83
2022-10-04T05:22:01.140Z,61.47
2022-10-04T05:24:34.769Z,61.71
2022-10-04T05:27:05.982Z,61.64
2022-10-04T05:29:40.880Z,61.04
2022-10-04T05:32:40.754Z,60.87
2022-10-04T05:35:20.353Z,61.19
2022-10-04T05:37:59.076Z,62.44
2022-10-04T05:40:38.262Z,62.39
2022-10-04T05:43:37.673Z,62.62
2022-10-04T05:46:18.665Z,62.08
2022-10-04T05:48:52.808Z,61.98
2022-10-04T05:51:24.480Z,61.68
2022-10-04T05:53:52.736Z,61.76
2022-10-04T05:56:55.339Z,62.12
2022-10-04T05:59:30.616Z,61.85
2022-10-04T06:02:19.752Z,62.02
2022-10-04T06:05:10.007Z,61.35
2022-10-04T06:07:46.862Z,60.19
2022-10-04T06:10:26.807Z,59.55
2022-10-04T06:13:00.472Z,59.08
2022-10-04T06:15:43.750Z,59.03
2022-10-04T06:18:29.417Z,56.83
2022-10-04T06:21:20.373Z,56.51
2022-10-04T06:23:57.798Z,55.91
2022-10-04T06:26:31.189Z,55.65
2022-10-04T06:29:05.048Z,55.89
2022-10-04T06:31:32.913Z,55.14
2022-10-04T06:34:39.730Z,54.98
2022-10-04T06:37:31.316Z,54.49
2022-10-04T06:40:30.711Z,54.74
2022-10-04T06:43:23.804Z,55.09
2022-10-04T06:46:16.897Z,54.58
2022-10-04T06:49:03.381Z,55.27
2022-10-04T06:52:08.780Z,55.13
2022-10-04T06:54:58.158Z,55.24
2022-10-04T06:58:08.584Z,55.29
2022-10-04T07:00:46.086Z,54.98
2022-10-04T07:03:30.210Z,54.17
2022-10-04T07:06:04.986Z,53.92
2022-10-04T07:08:50.770Z,52.48
2022-10-04T07:11:25.954Z,51.65
2022-10-04T07:14:11.412Z,52.79
2022-10-04T07:16:56.765Z,50.95
2022-10-04T07:19:36.647Z,50.93
2022-10-04T07:22:15.245Z,51.38
2022-10-04T07:25:07.370Z,51.41
2022-10-04T07:28:11.747Z,52.79
2022-10-04T07:30:45.792Z,50.62
2022-10-04T07:33:18.737Z,53.14
2022-10-04T07:35:51.933Z,51.52
2022-10-04T07:38:26.636Z,51.77
2022-10-04T07:40:57.332Z,53.82
2022-10-04T07:43:27.864Z,51.05
2022-10-04T07:46:06.315Z,50.41
2022-10-04T07:48:34.418Z,52.68
2022-10-04T07:51:19.121Z,51.13
2022-10-04T07:54:01.944Z,50.33
2022-10-04T07:56:57.382Z,52.32
2022-10-04T08:00:04.099Z,51.22
2022-10-04T08:02:51.661Z,49.35
2022-10-04T08:05:29.422Z,48.70
2022-10-04T08:08:15.638Z,49.38
2022-10-04T08:10:50.667Z,50.53
2022-10-04T08:13:32.890Z,50.52
2022-10-04T08:16:11.100Z,49.80
2022-10-04T08:18:47.681Z,49.35
2022-10-04T08:21:26.854Z,50.58
2022-10-04T08:24:15.385Z,48.85
2022-10-04T08:26:58.339Z,48.38
2022-10-04T08:29:52.556Z,48.04
2022-10-04T08:32:29.316Z,47.36
2022-10-04T08:35:28.785Z,46.90
2022-10-04T08:38:24.719Z,46.53
2022-10-04T08:41:13.327Z,45.84
2022-10-04T08:44:23.254Z,44.60
2022-10-04T08:47:10.697Z,45.78
2022-10-04T08:50:07.501Z,46.37
2022-10-04T08:52:57.360Z,46.10
2022-10-04T08:55:46.988Z,45.96
2022-10-04T08:58:26.278Z,46.04
2022-10-04T09:01:10.205Z,45.43
2022-10-04T09:04:05.631Z,45.64
2022-10-04T09:07:15.052Z,45.40
2022-10-04T09:09:55.335Z,44.99
2022-10-04T09:12:45.067Z,46.14
2022-10-04T09:15:31.353Z,43.97
2022-10-04T09:18:11.914Z,47.23
2022-10-04T09:20:48.305Z,47.18
2022-10-04T09:23:41.861Z,46.50
2022-10-04T09:26:36.972Z,45.28
2022-10-04T09:29:42.002Z,48.06
2022-10-04T09:32:21.625Z,47.41
2022-10-04T09:35:06.450Z,47.54
2022-10-04T09:37:59.882Z,48.16
2022-10-04T09:41:09.790Z,46.75
2022-10-04T09:44:02.532Z,46.62
2022-10-04T09:46:53.185Z,47.09
2022-10-04T09:49:54.630Z,47.14
2022-10-04T09:52:40.106Z,47.19
2022-10-04T09:55:20.681Z,47.13
2022-10-04T09:58:00.902Z,46.83
2022-10-04T10:01:02.774Z,48.16
2022-10-04T10:04:28.584Z,46.93
2022-10-04T10:07:14.296Z,45.79
2022-10-04T10:10:26.948Z,45.20
2022-10-04T10:13:40.822Z,46.17
2022-10-04T10:16:45.633Z,46.00
2022-10-04T10:19:19.396Z,47.19
2022-10-04T10:22:13.603Z,47.41
2022-10-04T10:25:19.043Z,47.22
2022-10-04T10:28:20.606Z,48.17
2022-10-04T10:31:08.844Z,46.51
2022-10-04T10:33:39.748Z,46.04
2022-10-04T10:39:44.047Z,44.86
2022-10-04T10:42:41.077Z,45.67
2022-10-04T10:45:14.834Z,44.62
2022-10-04T10:48:04.943Z,44.24
2022-10-04T10:51:00.744Z,43.25
2022-10-04T10:53:51.028Z,41.80
2022-10-04T10:57:00.862Z,42.95
2022-10-04T10:59:49.994Z,43.34
2022-10-04T11:02:50.062Z,42.48
2022-10-04T11:05:46.054Z,44.64
2022-10-04T11:09:11.739Z,44.31
2022-10-04T11:11:45.211Z,44.62
2022-10-04T11:14:50.639Z,43.88
2022-10-04T11:17:27.567Z,44.42
2022-10-04T11:20:06.811Z,46.12
2022-10-04T11:22:53.441Z,44.68
2022-10-04T11:25:39.847Z,45.50
2022-10-04T11:28:22.386Z,44.66
2022-10-04T11:30:59.065Z,43.32
2022-10-04T11:33:30.039Z,46.98
2022-10-04T11:36:24.570Z,44.78
2022-10-04T11:38:57.909Z,44.14
2022-10-04T11:41:50.238Z,45.88
2022-10-04T11:44:31.170Z,44.23
2022-10-04T11:47:02.129Z,44.81
2022-10-04T11:49:35.756Z,45.19
2022-10-04T11:52:25.563Z,46.68
2022-10-04T11:55:31.294Z,45.96
2022-10-04T11:58:20.135Z,46.04
2022-10-04T12:01:11.308Z,46.64
2022-10-04T12:04:04.273Z,46.60
2022-10-04T12:06:44.499Z,47.42
2022-10-04T12:09:18.582Z,46.11
2022-10-04T12:12:04.815Z,46.75
2022-10-04T12:14:53.327Z,47.40
2022-10-04T12:17:59.935Z,46.67
2022-10-04T12:20:53.337Z,46.55
2022-10-04T12:23:42.941Z,45.85
2022-10-04T12:26:19.770Z,44.87
2022-10-04T12:28:56.377Z,44.51
2022-10-04T12:31:28.533Z,45.29
2022-10-04T12:34:16.124Z,44.03
2022-10-04T12:36:49.935Z,44.22
2022-10-04T12:39:36.321Z,44.11
2022-10-04T12:42:31.603Z,42.55
2022-10-04T12:45:03.820Z,42.36
2022-10-04T12:47:48.624Z,40.92
2022-10-04T12:50:31.555Z,41.86
2022-10-04T12:53:17.679Z,41.03
2022-10-04T12:56:13.358Z,41.27
2022-10-04T12:58:57.652Z,42.22
2022-10-04T13:01:46.693Z,42.47
2022-10-04T13:04:44.063Z,41.73
2022-10-04T13:07:29.968Z,43.22
2022-10-04T13:10:28.450Z,42.95
2022-10-04T13:13:33.537Z,42.32
2022-10-04T13:19:23.850Z,42.79
2022-10-04T13:22:10.634Z,42.81
2022-10-04T13:24:58.279Z,42.20
2022-10-04T13:27:38.514Z,41.88
2022-10-04T13:30:26.616Z,42.35
2022-10-04T13:33:10.059Z,42.42
2022-10-04T13:35:54.443Z,40.94
2022-10-04T13:38:40.775Z,41.76
2022-10-04T13:41:39.846Z,43.75
2022-10-04T13:44:44.051Z,42.14
2022-10-04T13:47:38.047Z,41.17
2022-10-04T13:50:17.497Z,40.97
2022-10-04T13:53:39.195Z,41.57
2022-10-04T13:56:29.144Z,41.15
2022-10-04T13:59:17.557Z,40.79
2022-10-04T14:02:14.081Z,42.53
2022-10-04T14:04:51.129Z,41.57
2022-10-04T14:07:49.525Z,45.84
2022-10-04T14:10:54.366Z,46.98
2022-10-04T14:20:39.343Z,48.22
2022-10-04T14:23:22.444Z,48.41
2022-10-04T14:26:25.274Z,47.51
2022-10-04T14:29:15.531Z,47.55
2022-10-04T14:31:55.294Z,48.23
2022-10-04T14:34:44.291Z,47.63
2022-10-04T14:37:29.008Z,47.86
2022-10-04T14:40:26.893Z,48.03
2022-10-04T14:43:00.482Z,48.45
2022-10-04T14:45:49.810Z,48.18
2022-10-04T14:48:36.249Z,48.33
2022-10-04T14:51:26.647Z,48.04
2022-10-04T14:54:03.087Z,48.95
2022-10-04T14:57:08.683Z,47.88
2022-10-04T14:59:59.059Z,48.71
2022-10-04T15:02:30.272Z,48.32
2022-10-04T15:05:00.727Z,48.32
2022-10-04T15:07:40.900Z,48.08
2022-10-04T15:10:23.883Z,48.36
2022-10-04T15:13:11.475Z,47.32
2022-10-04T15:16:02.783Z,46.96
2022-10-04T15:19:04.413Z,47.77
2022-10-04T15:21:53.162Z,48.47
2022-10-04T15:24:42.546Z,48.92
2022-10-04T15:27:28.373Z,48.76
2022-10-04T15:30:24.441Z,47.79
2022-10-04T15:33:20.654Z,47.99
2022-10-04T15:36:43.766Z,48.20
2022-10-04T15:39:26.517Z,49.50
2022-10-04T15:42:14.901Z,49.72
2022-10-04T15:45:04.904Z,50.34
2022-10-04T15:47:50.315Z,50.76
2022-10-04T15:50:42.805Z,51.98
2022-10-04T15:53:43.222Z,51.73
2022-10-04T15:56:22.311Z,50.84
2022-10-04T15:58:56.059Z,52.33
2022-10-04T16:01:42.825Z,51.64
2022-10-04T16:04:32.027Z,50.59
2022-10-04T16:07:45.269Z,50.62
2022-10-04T16:10:23.881Z,51.67
2022-10-04T16:13:15.798Z,52.92
2022-10-04T16:15:50.358Z,54.37
2022-10-04T16:18:27.033Z,54.89
2022-10-04T16:21:16.745Z,56.51
2022-10-04T16:23:45.330Z,54.96
2022-10-04T16:26:34.014Z,55.69
2022-10-04T16:29:13.676Z,55.37
2022-10-04T16:31:56.051Z,56.01
2022-10-04T16:34:36.121Z,55.67
2022-10-04T16:37:10.094Z,55.91
2022-10-04T16:40:06.704Z,55.77
2022-10-04T16:43:04.455Z,55.71
2022-10-04T16:45:43.521Z,56.46
2022-10-04T16:48:33.671Z,56.68
2022-10-04T16:51:07.338Z,57.15
2022-10-04T16:53:59.625Z,58.12
2022-10-04T16:56:31.825Z,59.14
2022-10-04T16:59:01.245Z,58.74
2022-10-04T17:01:49.660Z,60.11
2022-10-04T17:04:39.370Z,58.93
2022-10-04T17:07:45.233Z,57.94
2022-10-04T17:10:35.340Z,57.48
2022-10-04T17:13:21.094Z,58.43
2022-10-04T17:15:49.220Z,58.85
2022-10-04T17:18:51.250Z,57.79
2022-10-04T17:22:10.553Z,58.54
2022-10-04T17:24:51.527Z,58.04
2022-10-04T17:27:26.187Z,58.90
2022-10-04T17:29:56.433Z,59.60
2022-10-04T17:32:38.894Z,59.58
2022-10-04T17:35:46.168Z,61.29
2022-10-04T17:38:27.306Z,60.58
2022-10-04T17:41:16.307Z,59.62
2022-10-04T17:43:56.504Z,60.35
2022-10-04T17:46:26.649Z,62.01
2022-10-04T17:49:18.543Z,61.33
2022-10-04T17:52:14.640Z,60.20
2022-10-04T17:55:08.489Z,60.89
2022-10-04T17:57:45.165Z,60.75
2022-10-04T18:00:14.398Z,61.73
2022-10-04T18:03:03.924Z,61.28
2022-10-04T18:05:41.728Z,61.82
2022-10-04T18:08:36.068Z,62.44
2022-10-04T18:11:15.220Z,61.93
2022-10-04T18:14:09.803Z,61.06
2022-10-04T18:16:52.189Z,62.22
2022-10-04T18:19:38.415Z,61.41
2022-10-04T18:22:19.108Z,60.90
2022-10-04T18:25:02.036Z,62.56
2022-10-04T18:27:33.373Z,62.69
2022-10-04T18:30:01.646Z,62.96
2022-10-04T18:32:33.569Z,62.86
2022-10-04T18:35:18.435Z,63.87
2022-10-04T18:37:46.056Z,63.52
2022-10-04T18:40:16.934Z,62.43
2022-10-04T18:42:52.476Z,62.01
2022-10-04T18:45:32.300Z,65.04
2022-10-04T18:48:02.295Z,64.78
2022-10-04T18:50:39.366Z,64.44
2022-10-04T18:53:40.199Z,63.66
2022-10-04T18:56:11.767Z,63.78
2022-10-04T18:59:27.212Z,63.01
2022-10-04T19:02:17.456Z,64.43
2022-10-04T19:05:15.415Z,64.29
2022-10-04T19:08:08.620Z,64.18
2022-10-04T19:11:05.709Z,64.10
2022-10-04T19:13:45.861Z,64.36
2022-10-04T19:16:19.237Z,63.18
2022-10-04T19:18:54.709Z,63.01
2022-10-04T19:21:40.002Z,64.34
2022-10-04T19:24:49.718Z,64.03
2022-10-04T19:27:36.407Z,64.08
2022-10-04T19:30:49.296Z,63.74
2022-10-04T19:33:38.167Z,62.67
2022-10-04T19:39:25.262Z,63.22
2022-10-04T19:42:06.720Z,64.08
2022-10-04T19:44:55.921Z,63.33
2022-10-04T19:47:40.119Z,63.33
2022-10-04T19:50:26.953Z,63.60
2022-10-04T19:53:07.310Z,63.90
2022-10-04T19:55:48.714Z,63.75
2022-10-04T19:58:25.725Z,63.42
2022-10-04T20:00:53.502Z,63.99
2022-10-04T20:03:21.871Z,62.73
2022-10-04T20:05:58.263Z,63.06
2022-10-04T20:09:25.445Z,62.58
2022-10-04T20:11:53.961Z,62.54
2022-10-04T20:14:23.291Z,64.24
2022-10-04T20:16:53.011Z,63.30
2022-10-04T20:19:33.035Z,63.66
2022-10-04T20:22:13.116Z,64.12
2022-10-04T20:24:40.651Z,63.50
2022-10-04T20:27:30.422Z,62.90
2022-10-04T20:30:04.265Z,62.86
2022-10-04T20:32:37.088Z,63.07
2022-10-04T20:35:15.953Z,65.20
2022-10-04T20:38:13.549Z,64.17
2022-10-04T20:40:41.326Z,64.87
2022-10-04T20:43:15.493Z,63.73
2022-10-04T20:45:54.943Z,63.45
2022-10-04T20:48:26.032Z,63.18
2022-10-04T20:50:54.726Z,64.72
2022-10-04T20:53:31.686Z,63.93
2022-10-04T20:56:32.452Z,64.53
2022-10-04T20:59:02.303Z,64.82
2022-10-04T21:01:35.855Z,64.67
2022-10-04T21:04:16.263Z,64.60
2022-10-04T21:07:04.274Z,64.79
2022-10-04T21:09:33.572Z,66.41
2022-10-04T21:12:02.488Z,65.21
2022-10-04T21:14:35.613Z,64.75
2022-10-04T21:17:23.699Z,65.47
2022-10-04T21:19:51.615Z,65.20
2022-10-04T21:22:25.475Z,65.98
2022-10-04T21:25:00.152Z,64.58
2022-10-04T21:27:35.601Z,65.76
2022-10-04T21:30:12.771Z,64.47
2022-10-04T21:32:40.912Z,65.48
2022-10-04T21:35:09.588Z,65.24
2022-10-04T21:37:37.153Z,64.96
2022-10-04T21:40:06.871Z,66.70
2022-10-04T21:42:35.115Z,65.46
2022-10-04T21:45:02.715Z,66.06
2022-10-04T21:47:30.661Z,66.05
2022-10-04T21:49:59.086Z,65.88
2022-10-04T21:52:26.709Z,67.18
2022-10-04T21:54:54.857Z,67.62
2022-10-04T21:57:24.098Z,65.89
2022-10-04T21:59:52.598Z,65.91
2022-10-04T22:02:20.635Z,66.33
2022-10-04T22:04:48.667Z,67.19
2022-10-04T22:07:16.244Z,68.56
2022-10-04T22:09:43.772Z,65.70
2022-10-04T22:12:11.701Z,65.13
2022-10-04T22:14:39.304Z,65.63
2022-10-04T22:17:06.860Z,66.44
2022-10-04T22:19:36.433Z,67.43
2022-10-04T22:22:04.005Z,69.46
2022-10-04T22:24:32.028Z,67.90
2022-10-04T22:27:00.425Z,68.52
2022-10-04T22:29:28.142Z,66.76
2022-10-04T22:31:55.802Z,68.37
2022-10-04T22:34:23.777Z,69.07
2022-10-04T22:36:53.132Z,69.40
2022-10-04T22:39:21.565Z,68.26
2022-10-04T22:42:01.332Z,67.46
2022-10-04T22:44:34.528Z,66.34
2022-10-04T22:47:04.554Z,68.84
2022-10-04T22:49:37.377Z,67.85
2022-10-04T22:52:20.817Z,67.43
2022-10-04T22:54:53.800Z,67.76
2022-10-04T22:57:21.879Z,68.33
2022-10-04T22:59:51.999Z,67.56
2022-10-04T23:02:26.927Z,67.22
2022-10-04T23:04:59.356Z,67.65
2022-10-04T23:07:27.030Z,68.72
2022-10-04T23:09:55.974Z,66.91
2022-10-04T23:12:23.609Z,66.73
2022-10-04T23:14:51.354Z,66.62
2022-10-04T23:17:31.543Z,66.60
2022-10-04T23:20:16.144Z,66.18
2022-10-04T23:22:49.203Z,66.03
2022-10-04T23:25:27.087Z,66.05
2022-10-04T23:28:03.045Z,66.10
2022-10-04T23:30:30.985Z,66.45
2022-10-04T23:33:01.182Z,65.94
2022-10-04T23:35:34.138Z,65.78
2022-10-04T23:38:07.293Z,65.93
2022-10-04T23:40:35.149Z,65.80
2022-10-04T23:43:05.089Z,66.00
2022-10-04T23:45:35.269Z,66.29
2022-10-04T23:48:03.343Z,66.49
2022-10-04T23:50:36.388Z,66.13
2022-10-04T23:53:06.617Z,66.32
2022-10-04T23:55:38.148Z,66.75
2022-10-04T23:58:22.547Z,66.81
